createdAt,value
2018-06-09T00:00:27.965Z,21.57
2018-06-09T00:02:56.318Z,22.87
2018-06-09T00:05:24.674Z,22.13
2018-06-09T00:07:52.986Z,20.83
2018-06-09T00:10:21.354Z,21.63
2018-06-09T00:12:49.661Z,20.90
2018-06-09T00:15:18.040Z,22.43
2018-06-09T00:17:46.517Z,22.67
2018-06-09T00:20:14.914Z,23.07
2018-06-09T00:22:43.248Z,21.20
2018-06-09T00:25:11.614Z,21.80
2018-06-09T00:27:39.974Z,22.50
2018-06-09T00:30:08.288Z,22.63
2018-06-09T00:32:36.767Z,22.70
2018-06-09T00:35:05.999Z,22.50
2018-06-09T00:37:34.338Z,22.57
2018-06-09T00:40:02.869Z,22.63
2018-06-09T00:42:31.227Z,23.43
2018-06-09T00:44:59.545Z,23.07
2018-06-09T00:47:28.303Z,23.37
2018-06-09T00:49:56.636Z,24.03
2018-06-09T00:52:24.983Z,24.87
2018-06-09T00:54:53.491Z,24.17
2018-06-09T00:57:21.882Z,24.47
2018-06-09T00:59:50.267Z,24.90
2018-06-09T01:02:18.641Z,22.83
2018-06-09T01:04:46.953Z,24.63
2018-06-09T01:07:15.301Z,24.63
2018-06-09T01:09:43.707Z,24.43
2018-06-09T01:12:12.037Z,25.37
2018-06-09T01:14:40.387Z,25.70
2018-06-09T01:17:08.765Z,24.60
2018-06-09T01:19:37.132Z,24.90
2018-06-09T01:22:05.598Z,25.57
2018-06-09T01:24:33.960Z,25.87
2018-06-09T01:27:02.329Z,25.37
2018-06-09T01:29:30.687Z,25.40
2018-06-09T01:31:59.041Z,27.13
2018-06-09T01:34:27.380Z,25.73
2018-06-09T01:36:55.504Z,26.20
2018-06-09T01:39:23.910Z,26.73
2018-06-09T01:41:53.405Z,26.23
2018-06-09T01:44:21.808Z,26.00
2018-06-09T01:46:50.188Z,26.07
2018-06-09T01:49:18.615Z,26.27
2018-06-09T01:51:47.007Z,26.63
2018-06-09T01:54:15.407Z,26.23
2018-06-09T01:56:43.788Z,26.67
2018-06-09T01:59:12.113Z,25.33
2018-06-09T02:01:40.476Z,26.40
2018-06-09T02:04:08.786Z,25.83
2018-06-09T02:06:37.163Z,26.40
2018-06-09T02:09:08.480Z,25.00
2018-06-09T02:11:36.807Z,26.57
2018-06-09T02:14:05.227Z,28.40
2018-06-09T02:16:33.610Z,25.33
2018-06-09T02:19:01.927Z,26.97
2018-06-09T02:21:30.287Z,27.60
2018-06-09T02:23:58.695Z,24.70
2018-06-09T02:26:27.063Z,25.33
2018-06-09T02:28:55.419Z,27.67
2018-06-09T02:31:23.816Z,26.60
2018-06-09T02:33:52.136Z,26.00
2018-06-09T02:36:20.240Z,23.93
2018-06-09T02:38:48.704Z,25.70
2018-06-09T02:41:18.014Z,23.67
2018-06-09T02:43:46.397Z,25.50
2018-06-09T02:46:14.788Z,24.23
2018-06-09T02:48:43.103Z,24.73
2018-06-09T02:51:11.472Z,23.53
2018-06-09T02:53:39.980Z,23.07
2018-06-09T02:56:08.366Z,22.73
2018-06-09T02:58:36.688Z,23.67
2018-06-09T03:01:05.104Z,24.53
2018-06-09T03:03:33.460Z,24.93
2018-06-09T03:06:01.839Z,23.33
2018-06-09T03:08:30.271Z,23.33
2018-06-09T03:10:58.616Z,22.77
2018-06-09T03:13:26.980Z,22.67
2018-06-09T03:15:55.405Z,24.13
2018-06-09T03:18:23.759Z,24.70
2018-06-09T03:20:52.163Z,24.33
2018-06-09T03:23:20.533Z,21.57
2018-06-09T03:25:48.996Z,23.33
2018-06-09T03:28:17.384Z,24.33
2018-06-09T03:30:45.732Z,23.07
2018-06-09T03:33:14.060Z,23.83
2018-06-09T03:35:42.395Z,23.17
2018-06-09T03:38:10.751Z,21.93
2018-06-09T03:40:39.099Z,22.27
2018-06-09T03:43:07.445Z,22.97
2018-06-09T03:45:35.964Z,23.33
2018-06-09T03:48:04.691Z,24.07
2018-06-09T03:50:33.023Z,22.27
2018-06-09T03:53:01.375Z,21.77
2018-06-09T03:55:29.746Z,21.10
2018-06-09T03:57:58.071Z,21.63
2018-06-09T04:00:26.466Z,21.77
2018-06-09T04:02:54.803Z,21.87
2018-06-09T04:05:24.008Z,20.80
2018-06-09T04:07:52.724Z,20.63
2018-06-09T04:10:21.058Z,19.63
2018-06-09T04:12:49.391Z,20.57
2018-06-09T04:15:17.858Z,19.07
2018-06-09T04:17:46.181Z,19.60
2018-06-09T04:20:14.493Z,19.07
2018-06-09T04:22:42.893Z,18.93
2018-06-09T04:25:11.261Z,19.03
2018-06-09T04:27:39.626Z,19.07
2018-06-09T04:30:08.109Z,19.53
2018-06-09T04:32:36.429Z,18.50
2018-06-09T04:35:04.826Z,17.83
2018-06-09T04:37:33.481Z,17.73
2018-06-09T04:40:01.800Z,17.80
2018-06-09T04:42:30.105Z,16.93
2018-06-09T04:44:58.558Z,18.03
2018-06-09T04:47:26.886Z,16.73
2018-06-09T04:49:55.210Z,18.37
2018-06-09T04:52:23.542Z,17.37
2018-06-09T04:54:51.840Z,17.03
2018-06-09T04:57:20.678Z,16.27
2018-06-09T04:59:49.049Z,16.47
2018-06-09T05:02:17.392Z,16.20
2018-06-09T05:04:45.704Z,15.83
2018-06-09T05:07:14.173Z,15.57
2018-06-09T05:09:42.508Z,14.93
2018-06-09T05:12:10.564Z,15.20
2018-06-09T05:14:38.646Z,14.60
2018-06-09T05:17:06.733Z,14.27
2018-06-09T05:19:35.033Z,14.13
2018-06-09T05:22:03.151Z,15.30
2018-06-09T05:24:31.457Z,14.23
2018-06-09T05:26:59.904Z,14.50
2018-06-09T05:29:28.493Z,14.53
2018-06-09T05:31:56.894Z,14.97
2018-06-09T05:34:25.277Z,13.33
2018-06-09T05:36:53.637Z,13.77
2018-06-09T05:39:21.977Z,14.23
2018-06-09T05:41:50.326Z,15.07
2018-06-09T05:44:18.707Z,13.47
2018-06-09T05:46:47.061Z,13.93
2018-06-09T05:49:15.448Z,12.70
2018-06-09T05:51:43.790Z,13.63
2018-06-09T05:54:12.196Z,13.10
2018-06-09T05:56:40.513Z,12.73
2018-06-09T05:59:08.885Z,12.30
2018-06-09T06:01:37.216Z,13.80
2018-06-09T06:04:05.531Z,12.87
2018-06-09T06:06:33.998Z,12.43
2018-06-09T06:09:02.340Z,12.43
2018-06-09T06:11:30.727Z,11.80
2018-06-09T06:13:59.091Z,12.60
2018-06-09T06:16:27.446Z,12.10
2018-06-09T06:18:55.821Z,11.23
2018-06-09T06:21:24.201Z,12.00
2018-06-09T06:23:52.532Z,10.83
2018-06-09T06:26:20.882Z,11.73
2018-06-09T06:28:49.281Z,11.87
2018-06-09T06:31:17.685Z,10.73
2018-06-09T06:33:46.053Z,12.37
2018-06-09T06:36:14.621Z,11.27
2018-06-09T06:38:42.989Z,11.63
2018-06-09T06:41:11.418Z,11.53
2018-06-09T06:43:39.885Z,11.10
2018-06-09T06:46:08.213Z,10.10
2018-06-09T06:48:36.585Z,10.23
2018-06-09T06:51:05.143Z,10.50
2018-06-09T06:53:33.498Z,9.70
2018-06-09T06:56:01.824Z,10.43
2018-06-09T06:58:30.244Z,9.63
2018-06-09T07:00:58.331Z,8.87
2018-06-09T07:03:26.414Z,9.07
2018-06-09T07:05:54.774Z,9.10
2018-06-09T07:08:22.880Z,9.20
2018-06-09T07:10:51.226Z,9.03
2018-06-09T07:13:19.553Z,8.93
2018-06-09T07:15:47.873Z,8.40
2018-06-09T07:18:16.257Z,8.83
2018-06-09T07:20:44.785Z,7.87
2018-06-09T07:23:13.126Z,8.10
2018-06-09T07:25:41.423Z,7.77
2018-06-09T07:28:09.826Z,8.37
2018-06-09T07:30:38.168Z,8.60
2018-06-09T07:33:06.623Z,8.50
2018-06-09T07:35:34.979Z,7.57
2018-06-09T07:38:03.283Z,7.77
2018-06-09T07:40:31.628Z,8.23
2018-06-09T07:42:59.969Z,8.93
2018-06-09T07:45:28.293Z,8.47
2018-06-09T07:47:56.611Z,8.00
2018-06-09T07:50:24.684Z,7.73
2018-06-09T07:52:52.748Z,9.17
2018-06-09T07:55:21.059Z,8.53
2018-06-09T07:57:49.549Z,9.20
2018-06-09T08:00:17.878Z,9.00
2018-06-09T08:02:46.165Z,8.90
2018-06-09T08:05:14.569Z,8.80
2018-06-09T08:07:42.884Z,8.33
2018-06-09T08:10:11.793Z,8.50
2018-06-09T08:12:40.195Z,8.00
2018-06-09T08:15:08.574Z,9.07
2018-06-09T08:17:36.898Z,8.93
2018-06-09T08:20:06.268Z,8.27
2018-06-09T08:22:34.328Z,9.13
2018-06-09T08:25:02.658Z,9.20
2018-06-09T08:27:31.257Z,8.40
2018-06-09T08:29:59.583Z,8.30
2018-06-09T08:32:27.861Z,8.83
2018-06-09T08:34:56.266Z,8.40
2018-06-09T08:37:24.609Z,8.43
2018-06-09T08:39:52.952Z,8.67
2018-06-09T08:42:21.530Z,8.37
2018-06-09T08:44:49.850Z,8.17
2018-06-09T08:47:18.201Z,8.43
2018-06-09T08:49:46.672Z,8.70
2018-06-09T08:52:15.010Z,8.10
2018-06-09T08:54:43.354Z,8.60
2018-06-09T08:57:11.861Z,8.23
2018-06-09T08:59:40.163Z,8.37
2018-06-09T09:02:08.527Z,9.07
2018-06-09T09:04:36.904Z,8.60
2018-06-09T09:07:05.269Z,9.30
2018-06-09T09:09:33.621Z,8.67
2018-06-09T09:12:02.479Z,8.80
2018-06-09T09:14:30.798Z,9.03
2018-06-09T09:16:59.185Z,8.80
2018-06-09T09:19:27.629Z,8.63
2018-06-09T09:21:56.018Z,8.60
2018-06-09T09:24:24.434Z,8.20
2018-06-09T09:26:52.501Z,7.47
2018-06-09T09:29:20.795Z,8.87
2018-06-09T09:31:49.104Z,9.43
2018-06-09T09:34:17.481Z,9.63
2018-06-09T09:36:46.847Z,8.30
2018-06-09T09:39:14.939Z,7.67
2018-06-09T09:41:43.253Z,8.23
2018-06-09T09:44:11.585Z,9.20
2018-06-09T09:46:39.916Z,8.77
2018-06-09T09:49:08.454Z,8.27
2018-06-09T09:51:36.758Z,8.77
2018-06-09T09:54:05.189Z,7.77
2018-06-09T09:56:33.424Z,7.30
2018-06-09T09:59:01.797Z,7.20
2018-06-09T10:01:30.182Z,7.87
2018-06-09T10:03:58.501Z,7.63
2018-06-09T10:06:26.816Z,7.57
2018-06-09T10:08:55.114Z,8.13
2018-06-09T10:11:23.449Z,8.40
2018-06-09T10:13:51.805Z,8.87
2018-06-09T10:16:20.141Z,9.00
2018-06-09T10:18:48.545Z,8.87
2018-06-09T10:21:16.883Z,8.30
2018-06-09T10:23:45.190Z,8.53
2018-06-09T10:26:13.632Z,8.77
2018-06-09T10:28:41.929Z,8.27
2018-06-09T10:31:10.311Z,8.80
2018-06-09T10:33:38.758Z,8.80
2018-06-09T10:36:07.210Z,8.00
2018-06-09T10:38:36.905Z,7.77
2018-06-09T10:41:05.273Z,8.87
2018-06-09T10:43:33.638Z,8.03
2018-06-09T10:46:01.972Z,8.10
2018-06-09T10:48:30.301Z,8.10
2018-06-09T10:50:58.661Z,8.93
2018-06-09T10:53:26.996Z,8.30
2018-06-09T10:55:55.437Z,9.07
2018-06-09T10:58:23.799Z,9.00
2018-06-09T11:00:52.094Z,8.73
2018-06-09T11:03:20.642Z,8.33
2018-06-09T11:05:48.958Z,7.83
2018-06-09T11:08:17.341Z,8.63
2018-06-09T11:10:45.769Z,8.47
2018-06-09T11:13:14.176Z,8.60
2018-06-09T11:15:42.461Z,8.03
2018-06-09T11:18:10.908Z,8.67
2018-06-09T11:20:39.480Z,8.50
2018-06-09T11:23:07.814Z,8.47
2018-06-09T11:25:36.371Z,7.93
2018-06-09T11:28:04.726Z,7.90
2018-06-09T11:30:33.110Z,9.40
2018-06-09T11:33:01.828Z,9.37
2018-06-09T11:35:30.140Z,8.73
2018-06-09T11:37:58.493Z,7.70
2018-06-09T11:40:27.025Z,8.50
2018-06-09T11:42:55.373Z,8.50
2018-06-09T11:45:23.785Z,8.10
2018-06-09T11:47:52.154Z,8.70
2018-06-09T11:50:20.478Z,9.63
2018-06-09T11:52:48.794Z,9.27
2018-06-09T11:55:17.181Z,8.00
2018-06-09T11:57:45.506Z,8.43
2018-06-09T12:00:13.894Z,8.57
2018-06-09T12:02:42.373Z,7.70
2018-06-09T12:05:10.754Z,7.97
2018-06-09T12:07:39.074Z,8.13
2018-06-09T12:10:07.829Z,7.67
2018-06-09T12:12:36.146Z,7.73
2018-06-09T12:15:04.584Z,7.90
2018-06-09T12:17:32.991Z,7.73
2018-06-09T12:20:01.629Z,9.60
2018-06-09T12:22:30.412Z,8.10
2018-06-09T12:24:58.973Z,8.17
2018-06-09T12:27:27.976Z,9.17
2018-06-09T12:29:56.304Z,9.90
2018-06-09T12:32:24.826Z,7.83
2018-06-09T12:34:53.157Z,8.03
2018-06-09T12:37:21.477Z,7.60
2018-06-09T12:39:49.981Z,8.40
2018-06-09T12:42:18.445Z,7.93
2018-06-09T12:44:46.794Z,8.33
2018-06-09T12:47:15.251Z,8.20
2018-06-09T12:49:43.569Z,8.77
2018-06-09T12:52:11.911Z,8.90
2018-06-09T12:54:40.721Z,8.57
2018-06-09T12:57:09.041Z,9.57
2018-06-09T12:59:37.419Z,9.10
2018-06-09T13:02:05.756Z,8.50
2018-06-09T13:04:34.049Z,9.63
2018-06-09T13:07:02.374Z,9.37
2018-06-09T13:09:30.765Z,7.80
2018-06-09T13:11:59.094Z,7.90
2018-06-09T13:14:27.431Z,8.00
2018-06-09T13:16:56.140Z,9.23
2018-06-09T13:19:24.556Z,8.53
2018-06-09T13:21:52.967Z,9.80
2018-06-09T13:24:21.439Z,8.33
2018-06-09T13:26:49.782Z,8.50
2018-06-09T13:29:18.933Z,8.67
2018-06-09T13:31:47.730Z,8.30
2018-06-09T13:34:16.074Z,11.90
2018-06-09T13:36:44.425Z,9.50
2018-06-09T13:39:12.805Z,8.07
2018-06-09T13:41:41.143Z,8.40
2018-06-09T13:44:09.604Z,8.17
2018-06-09T13:46:37.996Z,7.87
2018-06-09T13:49:06.352Z,7.97
2018-06-09T13:51:35.039Z,8.70
2018-06-09T13:54:03.825Z,9.87
2018-06-09T13:56:32.151Z,9.33
2018-06-09T13:59:00.628Z,8.70
2018-06-09T14:01:29.031Z,8.40
2018-06-09T14:03:57.358Z,9.37
2018-06-09T14:06:25.805Z,9.97
2018-06-09T14:08:54.145Z,10.97
2018-06-09T14:11:22.445Z,11.00
2018-06-09T14:13:50.789Z,11.40
2018-06-09T14:16:19.114Z,10.20
2018-06-09T14:18:47.437Z,10.60
2018-06-09T14:21:15.758Z,10.30
2018-06-09T14:23:44.167Z,11.43
2018-06-09T14:26:12.479Z,10.77
2018-06-09T14:28:40.836Z,10.83
2018-06-09T14:31:09.237Z,11.27
2018-06-09T14:33:37.653Z,11.67
2018-06-09T14:36:05.962Z,11.13
2018-06-09T14:38:34.452Z,10.97
2018-06-09T14:41:02.780Z,11.23
2018-06-09T14:43:31.136Z,10.20
2018-06-09T14:45:59.633Z,10.53
2018-06-09T14:48:28.584Z,11.60
2018-06-09T14:50:56.924Z,11.37
2018-06-09T14:53:26.205Z,10.57
2018-06-09T14:55:54.578Z,11.17
2018-06-09T14:58:22.945Z,11.27
2018-06-09T15:00:51.366Z,10.33
2018-06-09T15:03:19.421Z,11.50
2018-06-09T15:05:47.808Z,10.83
2018-06-09T15:08:16.238Z,11.20
2018-06-09T15:10:44.675Z,11.53
2018-06-09T15:13:13.051Z,10.50
2018-06-09T15:15:41.464Z,10.63
2018-06-09T15:18:09.857Z,11.30
2018-06-09T15:20:38.229Z,10.07
2018-06-09T15:23:06.758Z,10.20
2018-06-09T15:25:35.092Z,9.43
2018-06-09T15:28:03.395Z,9.67
2018-06-09T15:30:31.893Z,10.60
2018-06-09T15:33:00.618Z,10.57
2018-06-09T15:35:28.994Z,10.87
2018-06-09T15:37:57.465Z,10.37
2018-06-09T15:40:25.809Z,10.33
2018-06-09T15:42:54.117Z,10.13
2018-06-09T15:45:22.487Z,11.63
2018-06-09T15:47:51.042Z,10.40
2018-06-09T15:50:19.350Z,10.47
2018-06-09T15:52:47.749Z,10.77
2018-06-09T15:55:16.226Z,10.60
2018-06-09T15:57:44.288Z,10.87
2018-06-09T16:00:12.719Z,11.10
2018-06-09T16:02:41.057Z,11.07
2018-06-09T16:05:09.117Z,10.87
2018-06-09T16:07:37.725Z,11.13
2018-06-09T16:10:06.165Z,11.03
2018-06-09T16:12:34.445Z,11.67
2018-06-09T16:15:02.884Z,10.43
2018-06-09T16:17:31.181Z,12.27
2018-06-09T16:19:59.522Z,10.67
2018-06-09T16:22:28.051Z,11.17
2018-06-09T16:24:56.390Z,10.80
2018-06-09T16:27:25.381Z,10.57
2018-06-09T16:29:53.761Z,11.27
2018-06-09T16:32:22.146Z,11.67
2018-06-09T16:34:50.564Z,11.77
2018-06-09T16:37:18.880Z,11.83
2018-06-09T16:39:47.244Z,11.77
2018-06-09T16:42:15.629Z,11.60
2018-06-09T16:44:43.974Z,10.83
2018-06-09T16:47:12.408Z,10.73
2018-06-09T16:52:33.004Z,10.00
